Time;durP1;ratioP1;P1;durP2;ratioP2;P2;SDS_P1;SDS_P2;PMS_P1;PMS_P2;Temp;Humidity;BMP_temperature;BMP_pressure;BME280_temperature;BME280_humidity;BME280_pressure;Samples;Min_cycle;Max_cycle;Signal;HPM_P1;HPM_P2
2022/01/04 00:00:48;;;;;;;;;4.00;2.00;;;;;-146.25;100.00;57879.81;5079345;28;45556;-81
2022/01/04 00:03:14;;;;;;;;;3.33;2.00;;;;;-146.25;100.00;57879.81;5078451;28;45498;-81
2022/01/04 00:05:40;;;;;;;;;1.00;1.00;;;;;-146.25;100.00;57879.81;5078450;28;45578;-81
2022/01/04 00:08:09;;;;;;;;;1.00;1.00;;;;;-146.25;100.00;57879.81;5078707;28;45407;-80
2022/01/04 00:10:35;;;;;;;;;2.00;2.00;;;;;-146.25;100.00;57879.81;5078338;28;45345;-81
2022/01/04 00:15:45;;;;;;;;;1.00;1.00;;;;;-146.25;100.00;57879.81;5078756;28;45407;-81
2022/01/04 00:18:12;;;;;;;;;4.00;1.00;;;;;-146.25;100.00;57879.81;5077188;28;45410;-81
2022/01/04 00:20:38;;;;;;;;;1.00;1.00;;;;;-146.25;100.00;57879.81;5079015;28;46376;-80
2022/01/04 00:23:04;;;;;;;;;2.00;2.00;;;;;-146.25;100.00;57879.81;5078170;28;45907;-80
2022/01/04 00:25:30;;;;;;;;;2.00;1.00;;;;;-146.25;100.00;57879.81;5080498;28;45306;-80
2022/01/04 00:27:56;;;;;;;;;3.33;2.00;;;;;-146.25;100.00;57879.81;5078626;28;45366;-80
2022/01/04 00:30:21;;;;;;;;;1.33;1.33;;;;;-146.25;100.00;57879.81;5078321;28;46123;-80
2022/01/04 00:32:47;;;;;;;;;1.67;1.00;;;;;-146.25;100.00;57879.81;5077442;28;45418;-80
2022/01/04 00:35:12;;;;;;;;;2.67;2.00;;;;;-146.25;100.00;57879.81;5078327;28;45821;-80
2022/01/04 00:37:38;;;;;;;;;1.67;1.67;;;;;-146.25;100.00;57879.81;5078552;28;45545;-80
2022/01/04 00:40:05;;;;;;;;;1.00;1.00;;;;;-146.25;100.00;57879.81;5079504;28;45938;-80
2022/01/04 00:42:33;;;;;;;;;1.00;1.00;;;;;-146.25;100.00;57879.81;5078752;28;45454;-79
2022/01/04 00:44:58;;;;;;;;;1.00;1.00;;;;;-146.25;100.00;57879.81;5079015;28;45390;-80
2022/01/04 00:47:38;;;;;;;;;3.00;2.00;;;;;-146.25;100.00;57879.81;5077376;28;45319;-80
2022/01/04 00:50:04;;;;;;;;;2.00;2.00;;;;;-146.25;100.00;57879.81;5078100;28;46413;-81
2022/01/04 00:52:29;;;;;;;;;2.00;1.00;;;;;-146.25;100.00;57879.81;5078621;28;45536;-81
2022/01/04 00:54:55;;;;;;;;;2.00;1.00;;;;;-146.25;100.00;57879.81;5078571;28;45460;-81
2022/01/04 00:57:20;;;;;;;;;2.00;1.33;;;;;-146.25;100.00;57879.81;5078623;28;45326;-81
2022/01/04 00:59:46;;;;;;;;;3.00;2.00;;;;;-146.25;100.00;57879.81;5077900;28;45609;-81
2022/01/04 01:02:11;;;;;;;;;1.67;1.67;;;;;-146.25;100.00;57879.81;5077784;28;45531;-81
2022/01/04 01:04:37;;;;;;;;;1.33;1.00;;;;;-146.25;100.00;57879.81;5077997;28;45492;-81
2022/01/04 01:07:03;;;;;;;;;2.00;1.33;;;;;-146.25;100.00;57879.81;5078939;28;45342;-81
2022/01/04 01:09:33;;;;;;;;;4.00;2.00;;;;;-146.25;100.00;57879.81;5078250;28;46059;-81
2022/01/04 01:11:58;;;;;;;;;1.00;1.00;;;;;-146.25;100.00;57879.81;5077857;28;45423;-81
2022/01/04 01:14:24;;;;;;;;;1.33;1.00;;;;;-146.25;100.00;57879.81;5078236;28;45483;-81
2022/01/04 01:16:50;;;;;;;;;3.00;2.00;;;;;-146.25;100.00;57879.81;5093951;27;45496;-81
2022/01/04 01:19:15;;;;;;;;;2.00;2.00;;;;;-146.25;100.00;57879.81;5077449;28;45939;-81
2022/01/04 01:21:41;;;;;;;;;2.00;2.00;;;;;-146.25;100.00;57879.81;5077609;28;45248;-81
2022/01/04 01:24:07;;;;;;;;;1.00;1.00;;;;;-146.25;100.00;57879.81;5077318;28;45299;-80
2022/01/04 01:26:33;;;;;;;;;2.00;2.00;;;;;-146.25;100.00;57879.81;5079305;28;45186;-81
2022/01/04 01:28:58;;;;;;;;;0.67;0.67;;;;;-146.25;100.00;57879.81;5076135;28;46415;-81
2022/01/04 01:31:24;;;;;;;;;2.00;2.00;;;;;-146.25;100.00;57879.81;5077635;28;45708;-80
2022/01/04 01:33:50;;;;;;;;;1.00;1.00;;;;;-146.25;100.00;57879.81;5077368;28;45469;-81
2022/01/04 01:36:15;;;;;;;;;1.33;1.00;;;;;-146.25;100.00;57879.81;5078171;28;45583;-80
2022/01/04 01:38:41;;;;;;;;;2.00;1.67;;;;;-146.25;100.00;57879.81;5077526;28;46121;-81
2022/01/04 01:41:06;;;;;;;;;2.00;1.00;;;;;-146.25;100.00;57879.81;5077422;28;45461;-80
2022/01/04 01:43:32;;;;;;;;;2.00;1.33;;;;;-146.25;100.00;57879.81;5077954;28;45338;-81
2022/01/04 01:45:58;;;;;;;;;1.00;1.00;;;;;-146.25;100.00;57879.81;5079584;28;45405;-81
2022/01/04 01:48:24;;;;;;;;;1.00;1.00;;;;;-146.25;100.00;57879.81;5080868;28;46005;-81
2022/01/04 01:50:50;;;;;;;;;4.67;3.00;;;;;-146.25;100.00;57879.81;5081366;28;45446;-80
2022/01/04 01:53:17;;;;;;;;;2.00;2.00;;;;;-146.25;100.00;57879.81;5080950;28;45367;-81
2022/01/04 01:55:42;;;;;;;;;1.00;0.00;;;;;-146.25;100.00;57879.81;5081296;28;45584;-81
2022/01/04 01:58:08;;;;;;;;;1.00;1.00;;;;;-146.25;100.00;57879.81;5079694;28;48136;-79
2022/01/04 02:00:33;;;;;;;;;3.00;1.00;;;;;-146.25;100.00;57879.81;5079641;27;45485;-80
2022/01/04 02:03:01;;;;;;;;;1.00;1.00;;;;;-146.25;100.00;57879.81;5080435;27;45407;-81
2022/01/04 02:05:27;;;;;;;;;2.00;2.00;;;;;-146.25;100.00;57879.81;5079912;28;45755;-80
2022/01/04 02:07:53;;;;;;;;;1.00;1.00;;;;;-146.25;100.00;57879.81;5096660;27;45626;-80
2022/01/04 02:10:21;;;;;;;;;1.00;1.00;;;;;-146.25;100.00;57879.81;5100065;27;45379;-80
2022/01/04 02:12:49;;;;;;;;;2.00;1.67;;;;;-146.25;100.00;57879.81;5086803;28;45457;-80
2022/01/04 02:15:20;;;;;;;;;1.00;1.00;;;;;-146.25;100.00;57879.81;5081547;28;45230;-81
2022/01/04 02:17:46;;;;;;;;;1.00;1.00;;;;;-146.25;100.00;57879.81;5080602;28;46249;-80
2022/01/04 02:20:12;;;;;;;;;3.00;1.00;;;;;-146.25;100.00;57879.81;5081330;28;45345;-80
2022/01/04 02:22:39;;;;;;;;;0.67;0.67;;;;;-146.25;100.00;57879.81;5080264;28;45219;-80
2022/01/04 02:25:06;;;;;;;;;3.67;1.00;;;;;-146.25;100.00;57879.81;5081040;28;45222;-81
2022/01/04 02:27:36;;;;;;;;;1.00;0.00;;;;;-146.25;100.00;57879.81;5080389;28;45441;-80
2022/01/04 02:30:04;;;;;;;;;0.00;0.00;;;;;-146.25;100.00;57879.81;5080541;28;45457;-80
2022/01/04 02:32:30;;;;;;;;;1.00;1.00;;;;;-146.25;100.00;57879.81;5079080;28;45354;-80
2022/01/04 02:34:56;;;;;;;;;0.67;0.67;;;;;-146.25;100.00;57879.81;5081318;28;45470;-80
2022/01/04 02:37:24;;;;;;;;;2.00;0.00;;;;;-146.25;100.00;57879.81;5096051;27;46382;-79
2022/01/04 02:39:50;;;;;;;;;1.00;1.00;;;;;-146.25;100.00;57879.81;5080069;28;45464;-81
2022/01/04 02:42:16;;;;;;;;;1.33;1.00;;;;;-146.25;100.00;57879.81;5081989;28;45378;-81
2022/01/04 02:44:43;;;;;;;;;1.67;1.00;;;;;-146.25;100.00;57879.81;5081447;28;45468;-81
2022/01/04 02:47:09;;;;;;;;;2.00;1.33;;;;;-146.25;100.00;57879.81;5080008;28;46035;-78
2022/01/04 02:49:34;;;;;;;;;2.00;1.00;;;;;-146.25;100.00;57879.81;5080207;28;45431;-81
2022/01/04 02:52:00;;;;;;;;;0.67;0.00;;;;;-146.25;100.00;57879.81;5081285;28;45161;-81
2022/01/04 02:54:26;;;;;;;;;1.00;1.00;;;;;-146.25;100.00;57879.81;5079699;28;45438;-80
2022/01/04 02:56:51;;;;;;;;;1.00;1.00;;;;;-146.25;100.00;57879.81;5080141;28;46234;-81
2022/01/04 02:59:17;;;;;;;;;0.00;0.00;;;;;-146.25;100.00;57879.81;5080126;28;45355;-81
2022/01/04 03:01:43;;;;;;;;;3.00;1.00;;;;;-146.25;100.00;57879.81;5080166;28;46328;-80
2022/01/04 03:04:09;;;;;;;;;0.67;0.67;;;;;-146.25;100.00;57879.81;5080603;28;46182;-81
2022/01/04 03:06:36;;;;;;;;;1.00;1.00;;;;;-146.25;100.00;57879.81;5095857;27;46710;-81
2022/01/04 03:09:04;;;;;;;;;2.00;1.67;;;;;-146.25;100.00;57879.81;5079737;28;45449;-81
2022/01/04 03:11:29;;;;;;;;;1.00;1.00;;;;;-146.25;100.00;57879.81;5079720;28;45464;-81
2022/01/04 03:13:55;;;;;;;;;1.00;1.00;;;;;-146.25;100.00;57879.81;5080441;28;45461;-80
2022/01/04 03:16:21;;;;;;;;;1.00;1.00;;;;;-146.25;100.00;57879.81;5080299;28;45338;-81
2022/01/04 03:21:24;;;;;;;;;1.67;1.00;;;;;-146.25;100.00;57879.81;5080795;28;45490;-80
2022/01/04 03:23:49;;;;;;;;;3.00;1.67;;;;;-146.25;100.00;57879.81;5081344;28;45300;-80
2022/01/04 03:26:15;;;;;;;;;2.00;2.00;;;;;-146.25;100.00;57879.81;5080772;28;45949;-81
2022/01/04 03:28:41;;;;;;;;;1.00;0.00;;;;;-146.25;100.00;57879.81;5079982;28;45412;-79
2022/01/04 03:31:08;;;;;;;;;1.00;1.00;;;;;-146.25;100.00;57879.81;5079900;28;45396;-80
2022/01/04 03:33:36;;;;;;;;;2.33;1.00;;;;;-146.25;100.00;57879.81;5079578;28;45433;-80
2022/01/04 03:36:05;;;;;;;;;2.00;1.00;;;;;-146.25;100.00;57879.81;5079505;28;45389;-81
2022/01/04 03:38:31;;;;;;;;;2.00;1.00;;;;;-146.25;100.00;57879.81;5079307;28;45410;-80
2022/01/04 03:40:57;;;;;;;;;3.00;1.33;;;;;-146.25;100.00;57879.81;5079599;28;45568;-80
2022/01/04 03:43:23;;;;;;;;;1.67;1.67;;;;;-146.25;100.00;57879.81;5079116;28;45386;-80
2022/01/04 03:45:49;;;;;;;;;0.67;0.67;;;;;-146.25;100.00;57879.81;5080023;28;47047;-80
2022/01/04 03:48:15;;;;;;;;;1.00;1.00;;;;;-146.25;100.00;57879.81;5081395;28;45288;-80
2022/01/04 03:50:40;;;;;;;;;1.00;1.00;;;;;-146.25;100.00;57879.81;5080784;28;45353;-80
2022/01/04 03:53:06;;;;;;;;;2.00;1.33;;;;;-146.25;100.00;57879.81;5080233;28;45496;-80
2022/01/04 03:55:33;;;;;;;;;1.00;1.00;;;;;-146.25;100.00;57879.81;5078843;28;46309;-80
2022/01/04 03:57:59;;;;;;;;;1.67;1.00;;;;;-146.25;100.00;57879.81;5079768;28;45532;-81
2022/01/04 04:00:25;;;;;;;;;3.00;2.00;;;;;-146.25;100.00;57879.81;5080323;28;45447;-80
2022/01/04 04:02:51;;;;;;;;;1.67;1.67;;;;;-146.25;100.00;57879.81;5080216;28;45259;-80
2022/01/04 04:05:17;;;;;;;;;2.00;0.67;;;;;-146.25;100.00;57879.81;5079007;28;45478;-80
2022/01/04 04:07:43;;;;;;;;;3.67;2.00;;;;;-146.25;100.00;57879.81;5078396;28;45243;-80
2022/01/04 04:10:09;;;;;;;;;1.00;1.00;;;;;-146.25;100.00;57879.81;5079214;28;45526;-80
2022/01/04 04:12:35;;;;;;;;;3.00;2.00;;;;;-146.25;100.00;57879.81;5079701;28;45336;-80
2022/01/04 04:15:04;;;;;;;;;2.00;1.33;;;;;-146.25;100.00;57879.81;5079020;28;46106;-80
2022/01/04 04:17:30;;;;;;;;;2.00;1.00;;;;;-146.25;100.00;57879.81;5079036;28;45406;-80
2022/01/04 04:19:56;;;;;;;;;2.00;1.00;;;;;-146.25;100.00;57879.81;5078728;28;45251;-80
2022/01/04 04:22:21;;;;;;;;;1.00;1.00;;;;;-146.25;100.00;57879.81;5078985;28;45376;-79
2022/01/04 04:24:47;;;;;;;;;2.00;1.33;;;;;-146.25;100.00;57879.81;5079025;28;45421;-79
2022/01/04 04:27:14;;;;;;;;;2.00;1.00;;;;;-146.25;100.00;57879.81;5078884;28;45496;-80
2022/01/04 04:29:40;;;;;;;;;1.00;1.00;;;;;-146.25;100.00;57879.81;5079104;28;45699;-80
2022/01/04 04:32:06;;;;;;;;;1.00;1.00;;;;;-146.25;100.00;57879.81;5079865;28;45520;-80
2022/01/04 04:34:32;;;;;;;;;2.00;1.00;;;;;-146.25;100.00;57879.81;5078972;28;46123;-80
2022/01/04 04:36:57;;;;;;;;;0.00;0.00;;;;;-146.25;100.00;57879.81;5076757;28;45324;-80
2022/01/04 04:39:23;;;;;;;;;2.00;1.00;;;;;-146.25;100.00;57879.81;5078737;28;45407;-80
2022/01/04 04:41:49;;;;;;;;;1.00;1.00;;;;;-146.25;100.00;57879.81;5078488;28;45515;-80
2022/01/04 04:44:15;;;;;;;;;2.00;1.00;;;;;-146.25;100.00;57879.81;5078529;28;45352;-79
2022/01/04 04:46:41;;;;;;;;;1.00;1.00;;;;;-146.25;100.00;57879.81;5078391;28;45434;-80
2022/01/04 04:49:07;;;;;;;;;0.67;0.67;;;;;-146.25;100.00;57879.81;5078373;28;45461;-80
2022/01/04 04:51:33;;;;;;;;;1.00;1.00;;;;;-146.25;100.00;57879.81;5077155;28;45245;-79
2022/01/04 04:53:59;;;;;;;;;0.67;0.67;;;;;-146.25;100.00;57879.81;5078012;28;45510;-80
2022/01/04 04:56:24;;;;;;;;;1.00;1.00;;;;;-146.25;100.00;57879.81;5078336;28;45373;-80
2022/01/04 04:58:50;;;;;;;;;1.00;1.00;;;;;-146.25;100.00;57879.81;5078612;28;45205;-80
2022/01/04 05:01:16;;;;;;;;;1.00;1.00;;;;;-146.25;100.00;57879.81;5079319;28;45223;-80
2022/01/04 05:03:41;;;;;;;;;0.67;0.67;;;;;-146.25;100.00;57879.81;5078145;28;45717;-79
2022/01/04 05:06:09;;;;;;;;;1.00;0.67;;;;;-146.25;100.00;57879.81;5078328;28;45390;-79
2022/01/04 05:08:35;;;;;;;;;1.67;1.00;;;;;-146.25;100.00;57879.81;5078211;28;45374;-79
2022/01/04 05:11:02;;;;;;;;;1.67;1.67;;;;;-146.25;100.00;57879.81;5078195;28;45354;-79
2022/01/04 05:13:27;;;;;;;;;1.00;1.00;;;;;-146.25;100.00;57879.81;5078499;28;45510;-79
2022/01/04 05:15:53;;;;;;;;;1.00;1.00;;;;;-146.25;100.00;57879.81;5077946;28;45295;-80
2022/01/04 05:18:19;;;;;;;;;2.00;1.00;;;;;-146.25;100.00;57879.81;5078346;28;45224;-79
2022/01/04 05:20:44;;;;;;;;;1.67;1.67;;;;;-146.25;100.00;57879.81;5077799;28;45403;-80
2022/01/04 05:23:10;;;;;;;;;2.00;1.00;;;;;-146.25;100.00;57879.81;5076562;28;46341;-76
2022/01/04 05:25:35;;;;;;;;;1.50;1.00;;;;;-146.25;100.00;57879.81;5076778;27;45539;-81
2022/01/04 05:28:01;;;;;;;;;2.00;2.00;;;;;-146.25;100.00;57879.81;5076809;28;45486;-80
2022/01/04 05:30:27;;;;;;;;;1.67;1.67;;;;;-146.25;100.00;57879.81;5077241;28;45493;-80
2022/01/04 05:32:52;;;;;;;;;3.00;2.00;;;;;-146.25;100.00;57879.81;5073481;28;45967;-78
2022/01/04 05:35:18;;;;;;;;;2.00;2.00;;;;;-146.25;100.00;57879.81;5076629;28;45508;-80
2022/01/04 05:37:43;;;;;;;;;1.00;1.00;;;;;-146.25;100.00;57879.81;5076806;28;45507;-79
2022/01/04 05:40:10;;;;;;;;;1.00;1.00;;;;;-146.25;100.00;57879.81;5076834;28;45512;-76
2022/01/04 05:42:35;;;;;;;;;1.00;1.00;;;;;-146.25;100.00;57879.81;5076113;28;46203;-79
2022/01/04 05:45:01;;;;;;;;;2.33;2.00;;;;;-146.25;100.00;57879.81;5073325;28;45519;-77
2022/01/04 05:47:27;;;;;;;;;1.00;1.00;;;;;-146.25;100.00;57879.81;5076328;28;45398;-79
2022/01/04 05:49:53;;;;;;;;;2.67;2.00;;;;;-146.25;100.00;57879.81;5076991;28;45334;-79
2022/01/04 05:52:18;;;;;;;;;2.00;2.00;;;;;-146.25;100.00;57879.81;5076778;28;45393;-79
2022/01/04 05:54:46;;;;;;;;;1.00;0.33;;;;;-146.25;100.00;57879.81;5076468;28;45626;-80
2022/01/04 05:57:11;;;;;;;;;2.00;2.00;;;;;-146.25;100.00;57879.81;5076330;27;45496;-78
2022/01/04 05:59:37;;;;;;;;;1.00;1.00;;;;;-146.25;100.00;57879.81;5076214;28;45534;-80
2022/01/04 06:02:03;;;;;;;;;1.67;1.67;;;;;-146.25;100.00;57879.81;5075693;27;45451;-80
2022/01/04 06:04:28;;;;;;;;;2.67;2.00;;;;;-146.25;100.00;57879.81;5065416;27;45316;-79
2022/01/04 06:06:54;;;;;;;;;1.33;1.33;;;;;-146.25;100.00;57879.81;5075201;27;45467;-80
2022/01/04 06:09:26;;;;;;;;;1.00;1.00;;;;;-146.25;100.00;57879.81;5064473;28;45693;-79
2022/01/04 06:17:04;;;;;;;;;1.33;1.33;;;;;-146.25;100.00;57879.81;5074628;28;45432;-80
2022/01/04 06:19:30;;;;;;;;;2.00;1.00;;;;;-146.25;100.00;57879.81;5065413;28;45508;-79
2022/01/04 06:21:56;;;;;;;;;1.00;1.00;;;;;-146.25;100.00;57879.81;5065014;28;46056;-80
2022/01/04 06:24:22;;;;;;;;;2.00;2.00;;;;;-146.25;100.00;57879.81;5063402;27;45374;-80
2022/01/04 06:26:47;;;;;;;;;1.00;1.00;;;;;-146.25;100.00;57879.81;5064412;28;45426;-80
2022/01/04 06:29:14;;;;;;;;;1.00;1.00;;;;;-146.25;100.00;57879.81;5075335;27;45610;-80
2022/01/04 06:31:41;;;;;;;;;1.00;1.00;;;;;-146.25;100.00;57879.81;5075826;28;45965;-79
2022/01/04 06:34:07;;;;;;;;;0.33;0.33;;;;;-146.25;100.00;57879.81;5075634;28;45474;-80
2022/01/04 06:36:32;;;;;;;;;2.00;2.00;;;;;-146.25;100.00;57879.81;5068361;27;45535;-80
2022/01/04 06:38:58;;;;;;;;;2.00;2.00;;;;;-146.25;100.00;57879.81;5068988;28;45449;-80
2022/01/04 06:41:24;;;;;;;;;1.33;1.33;;;;;-146.25;100.00;57879.81;5078246;27;45751;-80
2022/01/04 06:43:49;;;;;;;;;1.00;1.00;;;;;-146.25;100.00;57879.81;5063747;28;45432;-79
2022/01/04 06:46:15;;;;;;;;;0.67;0.67;;;;;-146.25;100.00;57879.81;5059636;28;45558;-80
2022/01/04 06:48:42;;;;;;;;;0.00;0.00;;;;;-146.25;100.00;57879.81;5059899;28;45487;-81
2022/01/04 06:51:08;;;;;;;;;1.00;1.00;;;;;-146.25;100.00;57879.81;5059615;28;46179;-80
2022/01/04 06:53:34;;;;;;;;;0.67;0.67;;;;;-146.25;100.00;57879.81;5059245;28;45318;-81
2022/01/04 06:56:01;;;;;;;;;2.00;2.00;;;;;-146.25;100.00;57879.81;5059814;28;45480;-81
2022/01/04 06:58:26;;;;;;;;;1.00;1.00;;;;;-146.25;100.00;57879.81;5059564;28;45418;-80
2022/01/04 07:00:52;;;;;;;;;4.00;2.00;;;;;-146.25;100.00;57879.81;5059140;28;46121;-80
2022/01/04 07:03:19;;;;;;;;;1.00;1.00;;;;;-146.25;100.00;57879.81;5059793;28;45453;-81
2022/01/04 07:05:45;;;;;;;;;1.00;1.00;;;;;-146.25;100.00;57879.81;5075018;28;45586;-81
2022/01/04 07:08:10;;;;;;;;;0.00;0.00;;;;;-146.25;100.00;57879.81;5059416;28;45306;-81
2022/01/04 07:10:36;;;;;;;;;2.00;2.00;;;;;-146.25;100.00;57879.81;5058968;28;45991;-81
2022/01/04 07:13:01;;;;;;;;;0.67;0.00;;;;;-146.25;100.00;57879.81;5059032;28;45504;-81
2022/01/04 07:15:27;;;;;;;;;1.67;1.00;;;;;-146.25;100.00;57879.81;5059299;28;45488;-81
2022/01/04 07:17:52;;;;;;;;;1.33;1.00;;;;;-146.25;100.00;57879.81;5059288;28;45547;-80
2022/01/04 07:20:18;;;;;;;;;2.00;1.67;;;;;-146.25;100.00;57879.81;5059383;28;46244;-81
2022/01/04 07:22:44;;;;;;;;;1.00;1.00;;;;;-146.25;100.00;57879.81;5059442;28;45427;-80
2022/01/04 07:25:10;;;;;;;;;2.00;2.00;;;;;-146.25;100.00;57879.81;5059346;28;45577;-80
2022/01/04 07:27:35;;;;;;;;;0.33;0.33;;;;;-146.25;100.00;57879.81;5059628;28;45495;-80
2022/01/04 07:30:02;;;;;;;;;3.00;1.33;;;;;-146.25;100.00;57879.81;5058847;28;45542;-80
2022/01/04 07:32:29;;;;;;;;;2.67;2.67;;;;;-146.25;100.00;57879.81;5059224;28;45268;-80
2022/01/04 07:34:56;;;;;;;;;1.00;1.00;;;;;-146.25;100.00;57879.81;5059878;28;45439;-80
2022/01/04 07:37:22;;;;;;;;;1.00;1.00;;;;;-146.25;100.00;57879.81;5059106;28;45484;-81
2022/01/04 07:39:50;;;;;;;;;2.00;1.00;;;;;-146.25;100.00;57879.81;5058850;28;45397;-80
2022/01/04 07:42:16;;;;;;;;;1.00;1.00;;;;;-146.25;100.00;57879.81;5057961;28;45354;-81
2022/01/04 07:44:41;;;;;;;;;2.00;2.00;;;;;-146.25;100.00;57879.81;5057854;28;45524;-81
2022/01/04 07:47:07;;;;;;;;;5.00;4.00;;;;;-146.25;100.00;57879.81;5058675;28;45287;-81
2022/01/04 07:49:32;;;;;;;;;3.67;2.67;;;;;-146.25;100.00;57879.81;5058539;28;45341;-80
2022/01/04 07:51:58;;;;;;;;;6.33;5.67;;;;;-146.25;100.00;57879.81;5058423;28;45491;-80
2022/01/04 07:54:23;;;;;;;;;5.00;4.00;;;;;-146.25;100.00;57879.81;5058859;28;45477;-75
2022/01/04 07:56:49;;;;;;;;;7.00;6.00;;;;;-146.25;100.00;57879.81;5059336;28;45439;-80
2022/01/04 07:59:14;;;;;;;;;3.67;3.67;;;;;-146.25;100.00;57879.81;5058432;28;45310;-81
2022/01/04 08:01:40;;;;;;;;;6.33;5.33;;;;;-146.25;100.00;57879.81;5069102;28;45909;-80
2022/01/04 08:04:06;;;;;;;;;6.00;5.00;;;;;-146.25;100.00;57879.81;5077198;27;45528;-80
2022/01/04 08:06:32;;;;;;;;;9.00;7.00;;;;;-146.25;100.00;57879.81;5076973;27;45427;-80
2022/01/04 08:08:58;;;;;;;;;5.67;4.33;;;;;-146.25;100.00;57879.81;5076553;27;46152;-79
2022/01/04 08:11:26;;;;;;;;;3.00;2.00;;;;;-146.25;100.00;57879.81;5076698;27;45377;-80
2022/01/04 08:13:52;;;;;;;;;5.00;5.00;;;;;-146.25;100.00;57879.81;5076676;27;45388;-78
2022/01/04 08:16:18;;;;;;;;;3.00;3.00;;;;;-146.25;100.00;57879.81;5087730;27;45470;-79
2022/01/04 08:18:44;;;;;;;;;2.00;2.00;;;;;-146.25;100.00;57879.81;5101918;28;45322;-78
2022/01/04 08:21:10;;;;;;;;;4.67;3.00;;;;;-146.25;100.00;57879.81;5100876;27;44970;-79
2022/01/04 08:23:36;;;;;;;;;3.33;2.00;;;;;-146.25;100.00;57879.81;5102572;28;44844;-76
2022/01/04 08:26:04;;;;;;;;;3.00;2.00;;;;;-146.25;100.00;57879.81;5080421;28;45445;-80
2022/01/04 08:28:30;;;;;;;;;4.00;4.00;;;;;-146.25;100.00;57879.81;5078748;27;45485;-78
2022/01/04 08:30:56;;;;;;;;;2.00;2.00;;;;;-146.25;100.00;57879.81;5079408;27;45315;-79
2022/01/04 08:33:21;;;;;;;;;5.33;5.33;;;;;-146.25;100.00;57879.81;5075800;28;45756;-78
2022/01/04 08:35:52;;;;;;;;;5.00;3.67;;;;;-146.25;100.00;57879.81;5077518;27;45527;-78
2022/01/04 08:38:17;;;;;;;;;3.00;2.00;;;;;-146.25;100.00;57879.81;5076075;28;45369;-77
2022/01/04 08:40:43;;;;;;;;;4.67;4.67;;;;;-146.25;100.00;57879.81;5076229;28;45366;-79
2022/01/04 08:43:09;;;;;;;;;4.00;3.33;;;;;-146.25;100.00;57879.81;5071581;27;45924;-76
2022/01/04 08:45:35;;;;;;;;;4.00;3.67;;;;;-146.25;100.00;57879.81;5075733;27;45452;-75
2022/01/04 08:48:01;;;;;;;;;4.00;3.00;;;;;-146.25;100.00;57879.81;5074989;27;45639;-77
2022/01/04 08:50:27;;;;;;;;;2.33;1.67;;;;;-146.25;100.00;57879.81;5075983;28;45476;-78
2022/01/04 08:52:55;;;;;;;;;3.00;2.00;;;;;-146.25;100.00;57879.81;5077333;27;45437;-76
2022/01/04 08:55:23;;;;;;;;;2.33;1.67;;;;;-146.25;100.00;57879.81;5076949;27;45479;-75
2022/01/04 08:57:49;;;;;;;;;2.33;2.00;;;;;-146.25;100.00;57879.81;5076851;28;46312;-75
2022/01/04 09:00:16;;;;;;;;;2.00;2.00;;;;;-146.25;100.00;57879.81;5092618;27;45402;-76
2022/01/04 09:02:43;;;;;;;;;2.67;2.67;;;;;-146.25;100.00;57879.81;5076309;27;45489;-76
2022/01/04 09:05:10;;;;;;;;;3.67;3.67;;;;;-146.25;100.00;57879.81;5075561;28;46036;-77
2022/01/04 09:07:36;;;;;;;;;1.67;1.67;;;;;-146.25;100.00;57879.81;5073928;28;45719;-76
2022/01/04 09:10:05;;;;;;;;;1.00;1.00;;;;;-146.25;100.00;57879.81;5076225;27;45374;-76
2022/01/04 09:20:47;;;;;;;;;3.00;2.33;;;;;-146.25;100.00;57879.81;5076481;28;45253;-74
2022/01/04 09:23:16;;;;;;;;;2.00;1.00;;;;;-146.25;100.00;57879.81;5076528;27;45582;-75
2022/01/04 09:25:41;;;;;;;;;2.00;1.67;;;;;-146.25;100.00;57879.81;5076551;27;45557;-77
2022/01/04 09:28:08;;;;;;;;;2.00;2.00;;;;;-146.25;100.00;57879.81;5076359;27;45520;-75
2022/01/04 09:30:33;;;;;;;;;1.67;1.67;;;;;-146.25;100.00;57879.81;5076485;27;45334;-77
2022/01/04 09:33:00;;;;;;;;;3.00;2.00;;;;;-146.25;100.00;57879.81;5076251;27;45383;-77
2022/01/04 09:35:26;;;;;;;;;2.00;2.00;;;;;-146.25;100.00;57879.81;5076878;27;45339;-76
2022/01/04 09:37:52;;;;;;;;;5.00;5.00;;;;;-146.25;100.00;57879.81;5076258;27;45541;-77
2022/01/04 09:40:18;;;;;;;;;2.00;2.00;;;;;-146.25;100.00;57879.81;5076108;27;45507;-80
2022/01/04 09:42:44;;;;;;;;;2.67;2.33;;;;;-146.25;100.00;57879.81;5076198;27;45543;-80
2022/01/04 09:45:10;;;;;;;;;3.00;3.00;;;;;-146.25;100.00;57879.81;5076441;28;45495;-81
2022/01/04 09:47:36;;;;;;;;;4.00;3.00;;;;;-146.25;100.00;57879.81;5074808;28;47969;-85
2022/01/04 09:50:08;;;;;;;;;3.00;3.00;;;;;-146.25;100.00;57879.81;5076282;28;45359;-82
2022/01/04 09:52:35;;;;;;;;;3.00;3.00;;;;;-146.25;100.00;57879.81;5076943;27;45533;-87
2022/01/04 09:55:01;;;;;;;;;4.00;3.67;;;;;-146.25;100.00;57879.81;5076532;27;45626;-81
2022/01/04 09:57:27;;;;;;;;;4.00;4.00;;;;;-146.25;100.00;57879.81;5091781;27;46497;-84
2022/01/04 09:59:53;;;;;;;;;4.33;4.33;;;;;-146.25;100.00;57879.81;5076435;28;45448;-78
2022/01/04 10:02:20;;;;;;;;;5.00;5.00;;;;;-146.25;100.00;57879.81;5076832;28;45395;-77
2022/01/04 10:04:47;;;;;;;;;6.33;5.00;;;;;-146.25;100.00;57879.81;5076699;27;45321;-78
2022/01/04 10:07:13;;;;;;;;;4.00;4.00;;;;;-146.25;100.00;57879.81;5078434;27;45693;-80
2022/01/04 10:09:42;;;;;;;;;5.00;5.00;;;;;-146.25;100.00;57879.81;5080317;27;45383;-80
2022/01/04 10:12:10;;;;;;;;;6.67;6.00;;;;;-146.25;100.00;57879.81;5080308;27;45430;-85
2022/01/04 10:14:43;;;;;;;;;10.00;7.67;;;;;-146.25;100.00;57879.81;5080668;27;45535;-82
2022/01/04 10:17:31;;;;;;;;;6.00;6.00;;;;;-146.25;100.00;57879.81;5086593;27;45433;-80
2022/01/04 10:19:59;;;;;;;;;6.33;5.00;;;;;-146.25;100.00;57879.81;5073779;27;45526;-80
2022/01/04 10:22:34;;;;;;;;;6.00;5.67;;;;;-146.25;100.00;57879.81;5058738;28;45763;-81
2022/01/04 10:25:03;;;;;;;;;6.00;6.00;;;;;-146.25;100.00;57879.81;5062856;28;45862;-81
2022/01/04 10:27:44;;;;;;;;;6.00;6.00;;;;;-146.25;100.00;57879.81;5077448;28;48075;-81
2022/01/04 10:30:22;;;;;;;;;6.33;6.00;;;;;-146.25;100.00;57879.81;5079034;27;45491;-79
2022/01/04 10:32:56;;;;;;;;;3.33;3.33;;;;;-146.25;100.00;57879.81;5079979;27;45526;-79
2022/01/04 10:35:41;;;;;;;;;6.00;5.00;;;;;-146.25;100.00;57879.81;5079916;27;45922;-82
2022/01/04 10:38:22;;;;;;;;;4.00;4.00;;;;;-146.25;100.00;57879.81;5079678;27;46076;-82
2022/01/04 10:40:57;;;;;;;;;4.00;4.00;;;;;-146.25;100.00;57879.81;5080018;27;45400;-82
2022/01/04 10:43:27;;;;;;;;;4.00;4.00;;;;;-146.25;100.00;57879.81;5079264;28;45447;-83
2022/01/04 10:45:54;;;;;;;;;7.00;7.00;;;;;-146.25;100.00;57879.81;5080188;27;45294;-83
2022/01/04 10:48:24;;;;;;;;;5.00;4.33;;;;;-146.25;100.00;57879.81;5078370;28;45513;-83
2022/01/04 10:50:53;;;;;;;;;4.00;4.00;;;;;-146.25;100.00;57879.81;5080065;27;45440;-83
2022/01/04 10:53:31;;;;;;;;;3.00;3.00;;;;;-146.25;100.00;57879.81;5080123;27;45503;-82
2022/01/04 10:56:01;;;;;;;;;5.67;5.00;;;;;-146.25;100.00;57879.81;5080493;27;45347;-80
2022/01/04 10:58:32;;;;;;;;;5.00;3.67;;;;;-146.25;100.00;57879.81;5078511;28;45700;-80
2022/01/04 11:01:01;;;;;;;;;7.00;7.00;;;;;-146.25;100.00;57879.81;5080043;27;46050;-80
2022/01/04 11:03:30;;;;;;;;;6.00;4.33;;;;;-146.25;100.00;57879.81;5079069;27;45495;-80
2022/01/04 11:06:15;;;;;;;;;4.00;3.67;;;;;-146.25;100.00;57879.81;5080148;27;45539;-80
2022/01/04 11:08:42;;;;;;;;;4.33;4.33;;;;;-146.25;100.00;57879.81;5079252;27;46077;-81
2022/01/04 11:11:08;;;;;;;;;3.67;3.67;;;;;-146.25;100.00;57879.81;5079351;28;45397;-80
2022/01/04 11:13:34;;;;;;;;;4.67;4.00;;;;;-146.25;100.00;57879.81;5078151;28;45354;-81
2022/01/04 11:16:01;;;;;;;;;6.00;5.00;;;;;-146.25;100.00;57879.81;5079588;27;45435;-80
2022/01/04 11:18:27;;;;;;;;;4.00;3.00;;;;;-146.25;100.00;57879.81;5079075;28;46970;-80
2022/01/04 11:20:54;;;;;;;;;4.33;4.00;;;;;-146.25;100.00;57879.81;5079344;27;45376;-80
2022/01/04 11:23:25;;;;;;;;;3.33;3.00;;;;;-146.25;100.00;57879.81;5079914;28;45473;-80
2022/01/04 11:25:53;;;;;;;;;5.00;4.33;;;;;-146.25;100.00;57879.81;5079303;27;45436;-80